sensor_id;sensor_type;location;lat;lon;timestamp;P1;durP1;ratioP1;P2;durP2;ratioP2
33993;SDS011;20673;48.980;8.138;2023-08-01T00:00:08;7.40;;;4.50;;
33993;SDS011;20673;48.980;8.138;2023-08-01T00:02:35;7.23;;;4.83;;
33993;SDS011;20673;48.980;8.138;2023-08-01T00:05:01;11.25;;;5.22;;
33993;SDS011;20673;48.980;8.138;2023-08-01T00:07:28;8.03;;;5.53;;
33993;SDS011;20673;48.980;8.138;2023-08-01T00:09:54;8.53;;;5.00;;
33993;SDS011;20673;48.980;8.138;2023-08-01T00:12:21;8.30;;;4.87;;
33993;SDS011;20673;48.980;8.138;2023-08-01T00:14:49;8.33;;;5.10;;
33993;SDS011;20673;48.980;8.138;2023-08-01T00:17:15;8.57;;;5.87;;
33993;SDS011;20673;48.980;8.138;2023-08-01T00:19:42;10.57;;;5.40;;
33993;SDS011;20673;48.980;8.138;2023-08-01T00:22:08;8.57;;;5.23;;
33993;SDS011;20673;48.980;8.138;2023-08-01T00:24:35;8.37;;;5.10;;
33993;SDS011;20673;48.980;8.138;2023-08-01T00:27:02;8.50;;;4.93;;
33993;SDS011;20673;48.980;8.138;2023-08-01T00:29:29;8.27;;;4.87;;
33993;SDS011;20673;48.980;8.138;2023-08-01T00:31:55;9.73;;;4.83;;
33993;SDS011;20673;48.980;8.138;2023-08-01T00:34:22;7.37;;;5.10;;
33993;SDS011;20673;48.980;8.138;2023-08-01T00:36:48;8.87;;;5.27;;
33993;SDS011;20673;48.980;8.138;2023-08-01T00:39:14;7.13;;;4.53;;
33993;SDS011;20673;48.980;8.138;2023-08-01T00:41:40;7.63;;;4.37;;
33993;SDS011;20673;48.980;8.138;2023-08-01T00:44:06;13.50;;;5.20;;
33993;SDS011;20673;48.980;8.138;2023-08-01T00:46:32;12.97;;;4.93;;
33993;SDS011;20673;48.980;8.138;2023-08-01T00:48:58;7.73;;;4.93;;
33993;SDS011;20673;48.980;8.138;2023-08-01T00:51:26;10.90;;;4.53;;
33993;SDS011;20673;48.980;8.138;2023-08-01T00:53:53;8.43;;;4.80;;
33993;SDS011;20673;48.980;8.138;2023-08-01T00:56:19;7.83;;;4.27;;
33993;SDS011;20673;48.980;8.138;2023-08-01T00:58:46;9.17;;;4.27;;
33993;SDS011;20673;48.980;8.138;2023-08-01T01:01:12;8.43;;;4.30;;
33993;SDS011;20673;48.980;8.138;2023-08-01T01:03:38;8.63;;;4.77;;
33993;SDS011;20673;48.980;8.138;2023-08-01T01:06:14;8.23;;;5.30;;
33993;SDS011;20673;48.980;8.138;2023-08-01T01:08:51;9.60;;;4.47;;
33993;SDS011;20673;48.980;8.138;2023-08-01T01:11:19;9.53;;;5.00;;
33993;SDS011;20673;48.980;8.138;2023-08-01T01:13:45;8.33;;;4.73;;
33993;SDS011;20673;48.980;8.138;2023-08-01T01:16:12;6.63;;;4.80;;
33993;SDS011;20673;48.980;8.138;2023-08-01T01:18:38;9.17;;;5.13;;
33993;SDS011;20673;48.980;8.138;2023-08-01T01:21:04;10.57;;;4.97;;
33993;SDS011;20673;48.980;8.138;2023-08-01T01:23:30;9.53;;;4.87;;
33993;SDS011;20673;48.980;8.138;2023-08-01T01:25:59;8.77;;;5.40;;
33993;SDS011;20673;48.980;8.138;2023-08-01T01:28:27;7.60;;;4.70;;
33993;SDS011;20673;48.980;8.138;2023-08-01T01:30:55;9.53;;;5.30;;
33993;SDS011;20673;48.980;8.138;2023-08-01T01:33:21;14.33;;;5.30;;
33993;SDS011;20673;48.980;8.138;2023-08-01T01:35:48;9.20;;;4.67;;
33993;SDS011;20673;48.980;8.138;2023-08-01T01:38:14;7.77;;;4.90;;
33993;SDS011;20673;48.980;8.138;2023-08-01T01:40:41;8.17;;;4.77;;
33993;SDS011;20673;48.980;8.138;2023-08-01T01:43:07;8.90;;;5.60;;
33993;SDS011;20673;48.980;8.138;2023-08-01T01:45:33;7.97;;;4.73;;
33993;SDS011;20673;48.980;8.138;2023-08-01T01:48:00;6.10;;;4.50;;
33993;SDS011;20673;48.980;8.138;2023-08-01T01:50:26;9.73;;;4.77;;
33993;SDS011;20673;48.980;8.138;2023-08-01T01:52:52;6.77;;;4.60;;
33993;SDS011;20673;48.980;8.138;2023-08-01T01:55:18;7.23;;;4.30;;
33993;SDS011;20673;48.980;8.138;2023-08-01T01:57:45;7.83;;;4.53;;
33993;SDS011;20673;48.980;8.138;2023-08-01T02:00:11;8.80;;;4.37;;
33993;SDS011;20673;48.980;8.138;2023-08-01T02:02:37;10.03;;;4.60;;
33993;SDS011;20673;48.980;8.138;2023-08-01T02:05:04;7.30;;;4.50;;
33993;SDS011;20673;48.980;8.138;2023-08-01T02:07:30;8.13;;;4.17;;
33993;SDS011;20673;48.980;8.138;2023-08-01T02:09:59;7.40;;;4.62;;
33993;SDS011;20673;48.980;8.138;2023-08-01T02:12:26;6.30;;;4.20;;
33993;SDS011;20673;48.980;8.138;2023-08-01T02:14:55;9.87;;;4.27;;
33993;SDS011;20673;48.980;8.138;2023-08-01T02:17:21;9.13;;;4.93;;
33993;SDS011;20673;48.980;8.138;2023-08-01T02:19:47;8.47;;;4.30;;
33993;SDS011;20673;48.980;8.138;2023-08-01T02:22:13;7.67;;;4.40;;
33993;SDS011;20673;48.980;8.138;2023-08-01T02:24:39;7.00;;;4.10;;
33993;SDS011;20673;48.980;8.138;2023-08-01T02:27:06;9.73;;;4.30;;
33993;SDS011;20673;48.980;8.138;2023-08-01T02:29:32;7.53;;;4.47;;
33993;SDS011;20673;48.980;8.138;2023-08-01T02:31:58;8.70;;;4.47;;
33993;SDS011;20673;48.980;8.138;2023-08-01T02:34:24;9.83;;;4.23;;
33993;SDS011;20673;48.980;8.138;2023-08-01T02:36:50;8.50;;;4.50;;
33993;SDS011;20673;48.980;8.138;2023-08-01T02:39:17;9.00;;;4.43;;
33993;SDS011;20673;48.980;8.138;2023-08-01T02:41:43;5.57;;;4.17;;
33993;SDS011;20673;48.980;8.138;2023-08-01T02:44:09;9.70;;;4.47;;
33993;SDS011;20673;48.980;8.138;2023-08-01T02:46:35;9.90;;;4.43;;
33993;SDS011;20673;48.980;8.138;2023-08-01T02:49:01;8.07;;;4.30;;
33993;SDS011;20673;48.980;8.138;2023-08-01T02:51:28;7.73;;;4.53;;
33993;SDS011;20673;48.980;8.138;2023-08-01T02:53:54;6.63;;;4.30;;
33993;SDS011;20673;48.980;8.138;2023-08-01T02:56:20;9.40;;;4.53;;
33993;SDS011;20673;48.980;8.138;2023-08-01T02:58:46;8.00;;;4.10;;
33993;SDS011;20673;48.980;8.138;2023-08-01T03:01:12;7.20;;;4.90;;
33993;SDS011;20673;48.980;8.138;2023-08-01T03:03:39;8.80;;;4.70;;
33993;SDS011;20673;48.980;8.138;2023-08-01T03:06:05;9.58;;;4.60;;
33993;SDS011;20673;48.980;8.138;2023-08-01T03:08:31;7.57;;;4.53;;
33993;SDS011;20673;48.980;8.138;2023-08-01T03:10:57;6.90;;;4.33;;
33993;SDS011;20673;48.980;8.138;2023-08-01T03:13:24;10.20;;;4.97;;
33993;SDS011;20673;48.980;8.138;2023-08-01T03:15:50;10.57;;;5.27;;
33993;SDS011;20673;48.980;8.138;2023-08-01T03:18:16;9.03;;;5.70;;
33993;SDS011;20673;48.980;8.138;2023-08-01T03:20:42;7.60;;;4.53;;
33993;SDS011;20673;48.980;8.138;2023-08-01T03:23:08;12.00;;;5.50;;
33993;SDS011;20673;48.980;8.138;2023-08-01T03:25:34;10.63;;;5.00;;
33993;SDS011;20673;48.980;8.138;2023-08-01T03:28:00;9.90;;;5.50;;
33993;SDS011;20673;48.980;8.138;2023-08-01T03:30:26;7.33;;;5.20;;
33993;SDS011;20673;48.980;8.138;2023-08-01T03:32:53;8.40;;;4.53;;
33993;SDS011;20673;48.980;8.138;2023-08-01T03:35:19;8.83;;;4.67;;
33993;SDS011;20673;48.980;8.138;2023-08-01T03:37:45;8.53;;;4.40;;
33993;SDS011;20673;48.980;8.138;2023-08-01T03:40:11;10.77;;;5.73;;
33993;SDS011;20673;48.980;8.138;2023-08-01T03:42:37;11.63;;;5.47;;
33993;SDS011;20673;48.980;8.138;2023-08-01T03:45:03;9.13;;;5.17;;
33993;SDS011;20673;48.980;8.138;2023-08-01T03:47:31;6.93;;;4.63;;
33993;SDS011;20673;48.980;8.138;2023-08-01T03:49:57;12.28;;;4.75;;
33993;SDS011;20673;48.980;8.138;2023-08-01T03:52:23;8.53;;;4.50;;
33993;SDS011;20673;48.980;8.138;2023-08-01T03:54:54;10.43;;;5.23;;
33993;SDS011;20673;48.980;8.138;2023-08-01T03:57:20;9.40;;;5.20;;
33993;SDS011;20673;48.980;8.138;2023-08-01T03:59:46;7.40;;;4.53;;
33993;SDS011;20673;48.980;8.138;2023-08-01T04:02:13;6.93;;;4.20;;
33993;SDS011;20673;48.980;8.138;2023-08-01T04:04:39;9.20;;;4.60;;
33993;SDS011;20673;48.980;8.138;2023-08-01T04:07:05;8.77;;;4.97;;
33993;SDS011;20673;48.980;8.138;2023-08-01T04:09:31;9.85;;;5.60;;
33993;SDS011;20673;48.980;8.138;2023-08-01T04:11:57;17.23;;;5.20;;
33993;SDS011;20673;48.980;8.138;2023-08-01T04:14:23;11.00;;;5.27;;
33993;SDS011;20673;48.980;8.138;2023-08-01T04:16:49;8.03;;;4.67;;
33993;SDS011;20673;48.980;8.138;2023-08-01T04:19:15;13.50;;;4.83;;
33993;SDS011;20673;48.980;8.138;2023-08-01T04:21:41;10.03;;;4.70;;
33993;SDS011;20673;48.980;8.138;2023-08-01T04:24:07;7.00;;;4.37;;
33993;SDS011;20673;48.980;8.138;2023-08-01T04:26:33;8.20;;;5.05;;
33993;SDS011;20673;48.980;8.138;2023-08-01T04:29:00;7.97;;;4.37;;
33993;SDS011;20673;48.980;8.138;2023-08-01T04:31:26;8.07;;;4.20;;
33993;SDS011;20673;48.980;8.138;2023-08-01T04:33:52;9.17;;;4.37;;
33993;SDS011;20673;48.980;8.138;2023-08-01T04:36:18;8.57;;;4.43;;
33993;SDS011;20673;48.980;8.138;2023-08-01T04:38:44;7.50;;;4.67;;
33993;SDS011;20673;48.980;8.138;2023-08-01T04:41:10;7.27;;;4.60;;
33993;SDS011;20673;48.980;8.138;2023-08-01T04:43:36;9.27;;;5.20;;
33993;SDS011;20673;48.980;8.138;2023-08-01T04:46:02;6.17;;;4.05;;
33993;SDS011;20673;48.980;8.138;2023-08-01T04:48:28;8.70;;;4.47;;
33993;SDS011;20673;48.980;8.138;2023-08-01T04:50:54;7.47;;;4.40;;
33993;SDS011;20673;48.980;8.138;2023-08-01T04:53:20;7.70;;;4.70;;
33993;SDS011;20673;48.980;8.138;2023-08-01T04:55:46;7.23;;;4.33;;
33993;SDS011;20673;48.980;8.138;2023-08-01T04:58:12;9.50;;;4.73;;
33993;SDS011;20673;48.980;8.138;2023-08-01T05:00:40;11.07;;;5.77;;
33993;SDS011;20673;48.980;8.138;2023-08-01T05:03:07;8.43;;;4.03;;
33993;SDS011;20673;48.980;8.138;2023-08-01T05:05:33;9.43;;;4.05;;
33993;SDS011;20673;48.980;8.138;2023-08-01T05:07:59;9.80;;;4.70;;
33993;SDS011;20673;48.980;8.138;2023-08-01T05:10:25;6.57;;;4.10;;
33993;SDS011;20673;48.980;8.138;2023-08-01T05:12:51;7.87;;;3.87;;
33993;SDS011;20673;48.980;8.138;2023-08-01T05:15:18;7.93;;;4.57;;
33993;SDS011;20673;48.980;8.138;2023-08-01T05:17:44;7.97;;;4.20;;
33993;SDS011;20673;48.980;8.138;2023-08-01T05:20:10;7.60;;;4.23;;
33993;SDS011;20673;48.980;8.138;2023-08-01T05:22:37;6.70;;;4.30;;
33993;SDS011;20673;48.980;8.138;2023-08-01T05:25:03;8.07;;;4.63;;
33993;SDS011;20673;48.980;8.138;2023-08-01T05:27:30;6.07;;;4.07;;
33993;SDS011;20673;48.980;8.138;2023-08-01T05:29:56;9.03;;;4.70;;
33993;SDS011;20673;48.980;8.138;2023-08-01T05:32:22;8.53;;;3.97;;
33993;SDS011;20673;48.980;8.138;2023-08-01T05:34:48;6.47;;;4.00;;
33993;SDS011;20673;48.980;8.138;2023-08-01T05:37:14;7.03;;;4.80;;
33993;SDS011;20673;48.980;8.138;2023-08-01T05:39:40;10.47;;;4.97;;
33993;SDS011;20673;48.980;8.138;2023-08-01T05:42:06;8.87;;;4.67;;
33993;SDS011;20673;48.980;8.138;2023-08-01T05:44:35;6.83;;;4.10;;
33993;SDS011;20673;48.980;8.138;2023-08-01T05:47:02;5.10;;;3.15;;
33993;SDS011;20673;48.980;8.138;2023-08-01T05:49:28;5.73;;;3.80;;
33993;SDS011;20673;48.980;8.138;2023-08-01T05:51:55;6.90;;;3.85;;
33993;SDS011;20673;48.980;8.138;2023-08-01T05:54:21;7.93;;;3.97;;
33993;SDS011;20673;48.980;8.138;2023-08-01T05:56:47;8.40;;;4.10;;
33993;SDS011;20673;48.980;8.138;2023-08-01T05:59:13;6.92;;;3.77;;
33993;SDS011;20673;48.980;8.138;2023-08-01T06:01:39;9.80;;;5.03;;
33993;SDS011;20673;48.980;8.138;2023-08-01T06:04:05;11.97;;;4.90;;
33993;SDS011;20673;48.980;8.138;2023-08-01T06:06:32;10.83;;;5.17;;
33993;SDS011;20673;48.980;8.138;2023-08-01T06:08:58;9.45;;;5.20;;
33993;SDS011;20673;48.980;8.138;2023-08-01T06:11:24;9.17;;;5.30;;
33993;SDS011;20673;48.980;8.138;2023-08-01T06:13:52;8.30;;;4.90;;
33993;SDS011;20673;48.980;8.138;2023-08-01T06:16:18;10.60;;;6.40;;
33993;SDS011;20673;48.980;8.138;2023-08-01T06:18:44;9.73;;;6.25;;
33993;SDS011;20673;48.980;8.138;2023-08-01T06:21:10;9.88;;;5.97;;
33993;SDS011;20673;48.980;8.138;2023-08-01T06:23:37;13.32;;;6.42;;
33993;SDS011;20673;48.980;8.138;2023-08-01T06:26:03;8.98;;;6.15;;
33993;SDS011;20673;48.980;8.138;2023-08-01T06:28:29;11.70;;;6.70;;
33993;SDS011;20673;48.980;8.138;2023-08-01T06:30:56;10.77;;;6.47;;
33993;SDS011;20673;48.980;8.138;2023-08-01T06:33:22;11.50;;;5.90;;
33993;SDS011;20673;48.980;8.138;2023-08-01T06:35:49;9.83;;;6.63;;
33993;SDS011;20673;48.980;8.138;2023-08-01T06:38:15;11.90;;;6.28;;
33993;SDS011;20673;48.980;8.138;2023-08-01T06:40:42;10.20;;;6.40;;
33993;SDS011;20673;48.980;8.138;2023-08-01T06:43:08;9.20;;;5.87;;
33993;SDS011;20673;48.980;8.138;2023-08-01T06:45:34;9.53;;;5.30;;
33993;SDS011;20673;48.980;8.138;2023-08-01T06:48:00;10.60;;;5.85;;
33993;SDS011;20673;48.980;8.138;2023-08-01T06:50:26;10.48;;;6.42;;
33993;SDS011;20673;48.980;8.138;2023-08-01T06:52:53;10.75;;;5.80;;
33993;SDS011;20673;48.980;8.138;2023-08-01T06:55:21;10.73;;;5.87;;
33993;SDS011;20673;48.980;8.138;2023-08-01T06:57:47;10.17;;;6.27;;
33993;SDS011;20673;48.980;8.138;2023-08-01T07:00:13;8.67;;;5.60;;
33993;SDS011;20673;48.980;8.138;2023-08-01T07:02:40;8.60;;;5.95;;
33993;SDS011;20673;48.980;8.138;2023-08-01T07:05:06;9.60;;;6.37;;
33993;SDS011;20673;48.980;8.138;2023-08-01T07:07:33;7.83;;;5.87;;
33993;SDS011;20673;48.980;8.138;2023-08-01T07:09:59;13.27;;;6.50;;
33993;SDS011;20673;48.980;8.138;2023-08-01T07:12:25;9.60;;;6.37;;
33993;SDS011;20673;48.980;8.138;2023-08-01T07:14:52;8.70;;;5.33;;
33993;SDS011;20673;48.980;8.138;2023-08-01T07:17:18;10.48;;;5.67;;
33993;SDS011;20673;48.980;8.138;2023-08-01T07:19:44;7.37;;;5.40;;
33993;SDS011;20673;48.980;8.138;2023-08-01T07:22:10;8.88;;;5.97;;
33993;SDS011;20673;48.980;8.138;2023-08-01T07:24:36;8.40;;;5.40;;
33993;SDS011;20673;48.980;8.138;2023-08-01T07:27:02;8.53;;;5.20;;
33993;SDS011;20673;48.980;8.138;2023-08-01T07:29:29;9.57;;;5.80;;
33993;SDS011;20673;48.980;8.138;2023-08-01T07:31:55;10.20;;;5.47;;
33993;SDS011;20673;48.980;8.138;2023-08-01T07:34:21;10.17;;;6.10;;
33993;SDS011;20673;48.980;8.138;2023-08-01T07:36:48;9.37;;;5.30;;
33993;SDS011;20673;48.980;8.138;2023-08-01T07:39:15;6.83;;;5.17;;
33993;SDS011;20673;48.980;8.138;2023-08-01T07:41:41;8.08;;;5.35;;
33993;SDS011;20673;48.980;8.138;2023-08-01T07:44:07;9.67;;;5.47;;
33993;SDS011;20673;48.980;8.138;2023-08-01T07:46:33;6.20;;;4.20;;
33993;SDS011;20673;48.980;8.138;2023-08-01T07:48:59;6.80;;;4.60;;
33993;SDS011;20673;48.980;8.138;2023-08-01T07:51:26;7.60;;;4.53;;
33993;SDS011;20673;48.980;8.138;2023-08-01T07:53:52;9.87;;;4.40;;
33993;SDS011;20673;48.980;8.138;2023-08-01T07:56:19;7.73;;;3.90;;
33993;SDS011;20673;48.980;8.138;2023-08-01T07:58:46;7.20;;;3.60;;
33993;SDS011;20673;48.980;8.138;2023-08-01T08:01:12;8.17;;;3.83;;
33993;SDS011;20673;48.980;8.138;2023-08-01T08:03:38;5.50;;;3.60;;
33993;SDS011;20673;48.980;8.138;2023-08-01T08:06:04;6.20;;;3.83;;
33993;SDS011;20673;48.980;8.138;2023-08-01T08:08:31;6.83;;;3.70;;
33993;SDS011;20673;48.980;8.138;2023-08-01T08:11:01;5.17;;;3.65;;
33993;SDS011;20673;48.980;8.138;2023-08-01T08:13:28;7.62;;;4.08;;
33993;SDS011;20673;48.980;8.138;2023-08-01T08:15:55;7.13;;;4.37;;
33993;SDS011;20673;48.980;8.138;2023-08-01T08:18:24;7.97;;;4.23;;
33993;SDS011;20673;48.980;8.138;2023-08-01T08:20:50;6.30;;;4.00;;
33993;SDS011;20673;48.980;8.138;2023-08-01T08:23:16;3.83;;;2.57;;
33993;SDS011;20673;48.980;8.138;2023-08-01T08:25:44;3.33;;;2.30;;
33993;SDS011;20673;48.980;8.138;2023-08-01T08:28:12;3.43;;;2.27;;
33993;SDS011;20673;48.980;8.138;2023-08-01T08:30:39;4.50;;;2.35;;
33993;SDS011;20673;48.980;8.138;2023-08-01T08:33:05;4.50;;;2.80;;
33993;SDS011;20673;48.980;8.138;2023-08-01T08:35:32;4.12;;;2.42;;
33993;SDS011;20673;48.980;8.138;2023-08-01T08:38:02;3.57;;;2.63;;
33993;SDS011;20673;48.980;8.138;2023-08-01T08:40:34;4.03;;;2.20;;
33993;SDS011;20673;48.980;8.138;2023-08-01T08:43:01;2.67;;;2.27;;
33993;SDS011;20673;48.980;8.138;2023-08-01T08:45:33;2.77;;;2.27;;
33993;SDS011;20673;48.980;8.138;2023-08-01T08:48:01;3.77;;;1.63;;
33993;SDS011;20673;48.980;8.138;2023-08-01T08:50:31;1.70;;;1.20;;
33993;SDS011;20673;48.980;8.138;2023-08-01T08:53:00;2.17;;;1.17;;
33993;SDS011;20673;48.980;8.138;2023-08-01T08:55:28;3.22;;;1.40;;
33993;SDS011;20673;48.980;8.138;2023-08-01T08:57:56;2.00;;;1.30;;
33993;SDS011;20673;48.980;8.138;2023-08-01T09:00:25;1.53;;;0.80;;
33993;SDS011;20673;48.980;8.138;2023-08-01T09:02:53;2.70;;;0.80;;
33993;SDS011;20673;48.980;8.138;2023-08-01T09:05:20;1.20;;;0.70;;
33993;SDS011;20673;48.980;8.138;2023-08-01T09:07:50;1.45;;;0.75;;
33993;SDS011;20673;48.980;8.138;2023-08-01T09:10:21;0.93;;;0.50;;
33993;SDS011;20673;48.980;8.138;2023-08-01T09:12:48;1.67;;;0.57;;
33993;SDS011;20673;48.980;8.138;2023-08-01T09:15:15;1.47;;;0.77;;
33993;SDS011;20673;48.980;8.138;2023-08-01T09:17:51;1.70;;;0.65;;
33993;SDS011;20673;48.980;8.138;2023-08-01T09:20:21;0.60;;;0.50;;
33993;SDS011;20673;48.980;8.138;2023-08-01T09:22:48;0.83;;;0.60;;
33993;SDS011;20673;48.980;8.138;2023-08-01T09:25:14;1.40;;;0.70;;
33993;SDS011;20673;48.980;8.138;2023-08-01T09:27:40;1.30;;;0.77;;
33993;SDS011;20673;48.980;8.138;2023-08-01T09:30:10;0.60;;;0.50;;
33993;SDS011;20673;48.980;8.138;2023-08-01T09:32:40;0.80;;;0.77;;
33993;SDS011;20673;48.980;8.138;2023-08-01T09:35:21;1.40;;;0.57;;
33993;SDS011;20673;48.980;8.138;2023-08-01T09:37:49;0.80;;;0.57;;
33993;SDS011;20673;48.980;8.138;2023-08-01T09:40:15;1.17;;;0.60;;
33993;SDS011;20673;48.980;8.138;2023-08-01T09:42:42;0.80;;;0.50;;
33993;SDS011;20673;48.980;8.138;2023-08-01T09:47:43;0.83;;;0.50;;
33993;SDS011;20673;48.980;8.138;2023-08-01T09:50:11;0.70;;;0.40;;
33993;SDS011;20673;48.980;8.138;2023-08-01T09:52:40;0.70;;;0.68;;
33993;SDS011;20673;48.980;8.138;2023-08-01T09:55:06;0.67;;;0.47;;
33993;SDS011;20673;48.980;8.138;2023-08-01T09:57:33;1.80;;;0.70;;
33993;SDS011;20673;48.980;8.138;2023-08-01T10:00:05;1.92;;;0.68;;
33993;SDS011;20673;48.980;8.138;2023-08-01T10:02:34;2.65;;;0.75;;
33993;SDS011;20673;48.980;8.138;2023-08-01T10:05:03;1.02;;;0.70;;
33993;SDS011;20673;48.980;8.138;2023-08-01T10:07:31;1.15;;;0.80;;
33993;SDS011;20673;48.980;8.138;2023-08-01T10:10:00;0.72;;;0.60;;
33993;SDS011;20673;48.980;8.138;2023-08-01T10:12:28;0.80;;;0.50;;
33993;SDS011;20673;48.980;8.138;2023-08-01T10:14:56;1.90;;;0.90;;
33993;SDS011;20673;48.980;8.138;2023-08-01T10:17:22;1.20;;;0.80;;
33993;SDS011;20673;48.980;8.138;2023-08-01T10:19:51;3.08;;;0.72;;
33993;SDS011;20673;48.980;8.138;2023-08-01T10:22:21;1.92;;;1.12;;
33993;SDS011;20673;48.980;8.138;2023-08-01T10:24:48;1.80;;;0.72;;
33993;SDS011;20673;48.980;8.138;2023-08-01T10:27:18;1.67;;;0.90;;
33993;SDS011;20673;48.980;8.138;2023-08-01T10:29:57;1.22;;;0.88;;
33993;SDS011;20673;48.980;8.138;2023-08-01T10:32:39;1.75;;;1.00;;
33993;SDS011;20673;48.980;8.138;2023-08-01T10:35:06;1.95;;;0.93;;
33993;SDS011;20673;48.980;8.138;2023-08-01T10:37:43;2.67;;;1.20;;
33993;SDS011;20673;48.980;8.138;2023-08-01T10:40:12;4.58;;;1.17;;
33993;SDS011;20673;48.980;8.138;2023-08-01T10:42:44;2.75;;;1.20;;
33993;SDS011;20673;48.980;8.138;2023-08-01T10:45:21;2.05;;;1.22;;
33993;SDS011;20673;48.980;8.138;2023-08-01T10:47:50;2.52;;;0.90;;
33993;SDS011;20673;48.980;8.138;2023-08-01T10:50:17;2.12;;;1.12;;
33993;SDS011;20673;48.980;8.138;2023-08-01T10:52:45;1.80;;;1.17;;
33993;SDS011;20673;48.980;8.138;2023-08-01T10:55:11;1.52;;;0.95;;
33993;SDS011;20673;48.980;8.138;2023-08-01T10:57:39;1.80;;;1.05;;
33993;SDS011;20673;48.980;8.138;2023-08-01T11:00:15;1.65;;;0.98;;
33993;SDS011;20673;48.980;8.138;2023-08-01T11:02:48;1.75;;;1.17;;
33993;SDS011;20673;48.980;8.138;2023-08-01T11:05:18;2.22;;;1.22;;
33993;SDS011;20673;48.980;8.138;2023-08-01T11:07:54;4.58;;;1.47;;
33993;SDS011;20673;48.980;8.138;2023-08-01T11:10:25;2.33;;;1.10;;
33993;SDS011;20673;48.980;8.138;2023-08-01T11:12:53;3.22;;;1.32;;
33993;SDS011;20673;48.980;8.138;2023-08-01T11:15:20;3.33;;;1.10;;
33993;SDS011;20673;48.980;8.138;2023-08-01T11:17:47;1.80;;;1.05;;
33993;SDS011;20673;48.980;8.138;2023-08-01T11:20:16;3.08;;;1.67;;
33993;SDS011;20673;48.980;8.138;2023-08-01T11:22:51;2.10;;;1.30;;
33993;SDS011;20673;48.980;8.138;2023-08-01T11:25:35;3.50;;;1.50;;
33993;SDS011;20673;48.980;8.138;2023-08-01T11:28:07;2.75;;;1.10;;
33993;SDS011;20673;48.980;8.138;2023-08-01T11:30:36;3.08;;;1.25;;
33993;SDS011;20673;48.980;8.138;2023-08-01T11:33:15;2.65;;;1.25;;
33993;SDS011;20673;48.980;8.138;2023-08-01T11:35:46;2.30;;;1.10;;
33993;SDS011;20673;48.980;8.138;2023-08-01T11:38:20;3.77;;;1.20;;
33993;SDS011;20673;48.980;8.138;2023-08-01T11:40:49;1.62;;;1.07;;
33993;SDS011;20673;48.980;8.138;2023-08-01T11:43:17;1.95;;;1.20;;
33993;SDS011;20673;48.980;8.138;2023-08-01T11:45:54;2.83;;;1.27;;
33993;SDS011;20673;48.980;8.138;2023-08-01T11:48:25;2.70;;;1.40;;
33993;SDS011;20673;48.980;8.138;2023-08-01T11:50:56;1.98;;;1.40;;
33993;SDS011;20673;48.980;8.138;2023-08-01T11:53:26;1.72;;;1.35;;
33993;SDS011;20673;48.980;8.138;2023-08-01T11:55:54;1.98;;;1.15;;
33993;SDS011;20673;48.980;8.138;2023-08-01T12:01:02;3.15;;;1.60;;
33993;SDS011;20673;48.980;8.138;2023-08-01T12:03:46;2.25;;;1.10;;
33993;SDS011;20673;48.980;8.138;2023-08-01T12:06:16;4.08;;;1.62;;
33993;SDS011;20673;48.980;8.138;2023-08-01T12:08:45;2.47;;;1.20;;
33993;SDS011;20673;48.980;8.138;2023-08-01T12:16:38;3.47;;;1.00;;
33993;SDS011;20673;48.980;8.138;2023-08-01T12:19:08;3.45;;;1.30;;
33993;SDS011;20673;48.980;8.138;2023-08-01T12:21:34;1.65;;;0.90;;
33993;SDS011;20673;48.980;8.138;2023-08-01T12:24:02;4.03;;;1.35;;
33993;SDS011;20673;48.980;8.138;2023-08-01T12:26:29;2.70;;;1.32;;
33993;SDS011;20673;48.980;8.138;2023-08-01T12:28:55;2.55;;;1.05;;
33993;SDS011;20673;48.980;8.138;2023-08-01T12:31:21;3.08;;;1.57;;
33993;SDS011;20673;48.980;8.138;2023-08-01T12:33:48;3.22;;;1.20;;
33993;SDS011;20673;48.980;8.138;2023-08-01T12:36:15;2.72;;;1.20;;
33993;SDS011;20673;48.980;8.138;2023-08-01T12:38:41;1.72;;;1.00;;
33993;SDS011;20673;48.980;8.138;2023-08-01T12:41:08;2.35;;;1.00;;
33993;SDS011;20673;48.980;8.138;2023-08-01T12:43:34;4.03;;;1.22;;
33993;SDS011;20673;48.980;8.138;2023-08-01T12:46:00;2.72;;;1.32;;
33993;SDS011;20673;48.980;8.138;2023-08-01T12:48:27;2.55;;;1.35;;
33993;SDS011;20673;48.980;8.138;2023-08-01T12:50:54;4.10;;;1.50;;
33993;SDS011;20673;48.980;8.138;2023-08-01T12:53:21;2.92;;;1.20;;
33993;SDS011;20673;48.980;8.138;2023-08-01T12:55:48;2.47;;;1.10;;
33993;SDS011;20673;48.980;8.138;2023-08-01T12:58:16;2.37;;;1.30;;
33993;SDS011;20673;48.980;8.138;2023-08-01T13:00:43;2.55;;;1.22;;
33993;SDS011;20673;48.980;8.138;2023-08-01T13:03:10;2.90;;;1.27;;
33993;SDS011;20673;48.980;8.138;2023-08-01T13:05:37;3.72;;;1.40;;
33993;SDS011;20673;48.980;8.138;2023-08-01T13:08:05;2.85;;;1.10;;
33993;SDS011;20673;48.980;8.138;2023-08-01T13:10:32;2.12;;;1.37;;
33993;SDS011;20673;48.980;8.138;2023-08-01T13:13:00;3.45;;;1.42;;
33993;SDS011;20673;48.980;8.138;2023-08-01T13:15:27;2.60;;;1.30;;
33993;SDS011;20673;48.980;8.138;2023-08-01T13:17:54;2.50;;;1.10;;
33993;SDS011;20673;48.980;8.138;2023-08-01T13:20:20;3.60;;;1.30;;
33993;SDS011;20673;48.980;8.138;2023-08-01T13:22:49;2.67;;;1.47;;
33993;SDS011;20673;48.980;8.138;2023-08-01T13:25:17;2.70;;;1.30;;
33993;SDS011;20673;48.980;8.138;2023-08-01T13:27:44;2.25;;;1.52;;
33993;SDS011;20673;48.980;8.138;2023-08-01T13:30:10;2.90;;;1.40;;
33993;SDS011;20673;48.980;8.138;2023-08-01T13:32:38;3.02;;;1.67;;
33993;SDS011;20673;48.980;8.138;2023-08-01T13:35:05;4.55;;;1.75;;
33993;SDS011;20673;48.980;8.138;2023-08-01T13:37:31;2.17;;;1.30;;
33993;SDS011;20673;48.980;8.138;2023-08-01T13:39:57;2.37;;;1.30;;
33993;SDS011;20673;48.980;8.138;2023-08-01T13:42:24;3.58;;;1.50;;
33993;SDS011;20673;48.980;8.138;2023-08-01T13:44:50;3.17;;;1.40;;
33993;SDS011;20673;48.980;8.138;2023-08-01T13:47:16;2.70;;;1.67;;
33993;SDS011;20673;48.980;8.138;2023-08-01T13:49:42;4.47;;;1.30;;
33993;SDS011;20673;48.980;8.138;2023-08-01T13:52:08;1.72;;;1.17;;
33993;SDS011;20673;48.980;8.138;2023-08-01T13:54:34;2.42;;;1.42;;
33993;SDS011;20673;48.980;8.138;2023-08-01T13:57:01;2.83;;;0.90;;
33993;SDS011;20673;48.980;8.138;2023-08-01T13:59:28;2.85;;;1.05;;
33993;SDS011;20673;48.980;8.138;2023-08-01T14:01:54;2.65;;;1.20;;
33993;SDS011;20673;48.980;8.138;2023-08-01T14:04:20;1.85;;;1.20;;
33993;SDS011;20673;48.980;8.138;2023-08-01T14:06:48;1.65;;;0.82;;
33993;SDS011;20673;48.980;8.138;2023-08-01T14:09:14;2.12;;;1.10;;
33993;SDS011;20673;48.980;8.138;2023-08-01T14:11:40;1.90;;;0.90;;
33993;SDS011;20673;48.980;8.138;2023-08-01T14:14:06;1.52;;;1.07;;
33993;SDS011;20673;48.980;8.138;2023-08-01T14:16:32;2.05;;;1.25;;
33993;SDS011;20673;48.980;8.138;2023-08-01T14:18:58;3.12;;;1.10;;
33993;SDS011;20673;48.980;8.138;2023-08-01T14:21:25;2.27;;;1.22;;
33993;SDS011;20673;48.980;8.138;2023-08-01T14:23:51;2.75;;;0.98;;
33993;SDS011;20673;48.980;8.138;2023-08-01T14:26:17;2.85;;;1.17;;
33993;SDS011;20673;48.980;8.138;2023-08-01T14:28:43;2.75;;;1.15;;
33993;SDS011;20673;48.980;8.138;2023-08-01T14:31:09;4.22;;;1.30;;
33993;SDS011;20673;48.980;8.138;2023-08-01T14:33:35;1.92;;;1.30;;
33993;SDS011;20673;48.980;8.138;2023-08-01T14:36:02;4.35;;;1.32;;
33993;SDS011;20673;48.980;8.138;2023-08-01T14:38:31;2.00;;;1.17;;
33993;SDS011;20673;48.980;8.138;2023-08-01T14:40:58;1.70;;;1.37;;
33993;SDS011;20673;48.980;8.138;2023-08-01T14:43:24;2.87;;;1.20;;
33993;SDS011;20673;48.980;8.138;2023-08-01T14:45:50;2.42;;;1.17;;
33993;SDS011;20673;48.980;8.138;2023-08-01T14:48:16;2.40;;;1.22;;
33993;SDS011;20673;48.980;8.138;2023-08-01T14:50:44;3.58;;;1.45;;
33993;SDS011;20673;48.980;8.138;2023-08-01T14:53:10;2.25;;;1.32;;
33993;SDS011;20673;48.980;8.138;2023-08-01T14:55:36;2.67;;;1.15;;